createdAt,value
2022-07-26T00:00:43.960Z,94805.03
2022-07-26T00:03:10.890Z,94801.78
2022-07-26T00:05:38.910Z,94796.31
2022-07-26T00:08:13.710Z,94808.53
2022-07-26T00:10:43.458Z,94804.91
2022-07-26T00:13:11.207Z,94801.91
2022-07-26T00:15:39.104Z,94795.31
2022-07-26T00:18:06.397Z,94799.25
2022-07-26T00:20:38.852Z,94802.97
2022-07-26T00:23:06.300Z,94807.28
2022-07-26T00:25:33.710Z,94802.56
2022-07-26T00:28:00.654Z,94805.22
2022-07-26T00:30:29.002Z,94796.31
2022-07-26T00:32:55.955Z,94796.91
2022-07-26T00:35:23.215Z,94804.53
2022-07-26T00:37:50.016Z,94798.09
2022-07-26T00:40:17.711Z,94794.13
2022-07-26T00:42:44.961Z,94794.94
2022-07-26T00:45:12.877Z,94793.34
2022-07-26T00:47:39.675Z,94791.22
2022-07-26T00:50:10.744Z,94782.75
2022-07-26T00:52:37.590Z,94760.81
2022-07-26T00:55:06.682Z,94777.00
2022-07-26T00:57:35.897Z,94776.88
2022-07-26T01:00:08.704Z,94769.44
2022-07-26T01:02:35.587Z,94776.59
2022-07-26T01:05:02.662Z,94785.31
2022-07-26T01:07:29.873Z,94785.22
2022-07-26T01:09:57.362Z,94782.66
2022-07-26T01:12:24.605Z,94787.47
2022-07-26T01:14:51.441Z,94784.31
2022-07-26T01:17:18.424Z,94787.06
2022-07-26T01:19:45.256Z,94780.88
2022-07-26T01:22:14.779Z,94782.97
2022-07-26T01:24:42.447Z,94788.25
2022-07-26T01:27:09.253Z,94786.09
2022-07-26T01:29:36.520Z,94780.59
2022-07-26T01:32:05.178Z,94785.13
2022-07-26T01:34:32.922Z,94787.84
2022-07-26T01:37:00.556Z,94781.47
2022-07-26T01:39:27.337Z,94779.44
2022-07-26T01:41:54.565Z,94767.44
2022-07-26T01:44:23.110Z,94774.31
2022-07-26T01:46:50.448Z,94767.03
2022-07-26T01:49:17.960Z,94771.75
2022-07-26T01:51:45.253Z,94770.78
2022-07-26T01:54:12.512Z,94777.41
2022-07-26T01:56:39.665Z,94789.38
2022-07-26T01:59:06.586Z,94790.53
2022-07-26T02:01:38.714Z,94789.53
2022-07-26T02:04:07.542Z,94790.66
2022-07-26T02:06:34.638Z,94796.81
2022-07-26T02:09:01.771Z,94790.81
2022-07-26T02:11:29.016Z,94796.69
2022-07-26T02:13:55.865Z,94794.34
2022-07-26T02:16:22.830Z,94785.28
2022-07-26T02:18:49.664Z,94799.97
2022-07-26T02:21:16.572Z,94797.91
2022-07-26T02:23:43.564Z,94794.50
2022-07-26T02:26:10.448Z,94802.75
2022-07-26T02:28:37.412Z,94792.28
2022-07-26T02:31:04.524Z,94791.16
2022-07-26T02:33:31.770Z,94793.38
2022-07-26T02:35:58.515Z,94794.41
2022-07-26T02:38:25.481Z,94791.84
2022-07-26T02:40:52.918Z,94790.31
2022-07-26T02:43:20.231Z,94791.84
2022-07-26T02:46:01.037Z,94797.66
2022-07-26T02:48:28.304Z,94800.78
2022-07-26T02:50:55.274Z,94791.06
2022-07-26T02:53:22.167Z,94793.44
2022-07-26T02:55:49.010Z,94792.44
2022-07-26T02:58:15.785Z,94798.72
2022-07-26T03:00:42.856Z,94804.00
2022-07-26T03:03:14.099Z,94804.50
2022-07-26T03:05:41.644Z,94799.28
2022-07-26T03:08:08.525Z,94806.69
2022-07-26T03:10:35.546Z,94804.13
2022-07-26T03:13:02.551Z,94799.44
2022-07-26T03:15:29.700Z,94797.22
2022-07-26T03:17:56.704Z,94806.34
2022-07-26T03:20:23.803Z,94800.13
2022-07-26T03:22:50.798Z,94816.97
2022-07-26T03:25:17.566Z,94820.63
2022-07-26T03:27:44.444Z,94827.94
2022-07-26T03:30:12.292Z,94820.56
2022-07-26T03:32:39.396Z,94830.91
2022-07-26T03:35:07.190Z,94805.25
2022-07-26T03:37:45.415Z,94832.25
2022-07-26T03:40:16.829Z,94823.09
2022-07-26T03:42:44.728Z,94827.53
2022-07-26T03:45:12.469Z,94832.25
2022-07-26T03:47:39.315Z,94830.38
2022-07-26T03:50:07.285Z,94824.88
2022-07-26T03:52:34.870Z,94824.22
2022-07-26T03:55:21.752Z,94817.66
2022-07-26T03:57:48.534Z,94819.25
2022-07-26T04:00:15.610Z,94818.66
2022-07-26T04:02:42.584Z,94796.06
2022-07-26T04:05:10.433Z,94808.53
2022-07-26T04:07:53.193Z,94802.91
2022-07-26T04:10:21.895Z,94813.13
2022-07-26T04:12:49.977Z,94812.53
2022-07-26T04:15:19.282Z,94812.84
2022-07-26T04:17:48.441Z,94812.75
2022-07-26T04:20:16.563Z,94814.41
2022-07-26T04:22:43.462Z,94810.84
2022-07-26T04:25:10.414Z,94807.06
2022-07-26T04:27:38.158Z,94811.69
2022-07-26T04:30:14.108Z,94806.19
2022-07-26T04:32:42.036Z,94798.47
2022-07-26T04:35:09.563Z,94803.63
2022-07-26T04:37:44.986Z,94797.13
2022-07-26T04:40:16.479Z,94810.53
2022-07-26T04:42:43.639Z,94798.66
2022-07-26T04:45:13.054Z,94802.66
2022-07-26T04:47:44.827Z,94805.06
2022-07-26T04:50:12.638Z,94794.19
2022-07-26T04:52:41.014Z,94789.81
2022-07-26T04:55:09.336Z,94790.41
2022-07-26T04:57:36.440Z,94792.78
2022-07-26T05:00:22.813Z,94805.50
2022-07-26T05:02:54.222Z,94800.88
2022-07-26T05:05:22.494Z,94804.44
2022-07-26T05:07:51.912Z,94797.94
2022-07-26T05:10:20.382Z,94799.16
2022-07-26T05:12:48.431Z,94804.09
2022-07-26T05:15:15.718Z,94805.75
2022-07-26T05:17:43.747Z,94791.16
2022-07-26T05:20:14.043Z,94789.66
2022-07-26T05:22:41.161Z,94786.00
2022-07-26T05:25:08.831Z,94793.22
2022-07-26T05:27:35.999Z,94796.09
2022-07-26T05:30:03.554Z,94795.16
2022-07-26T05:32:30.375Z,94788.00
2022-07-26T05:34:57.256Z,94795.06
2022-07-26T05:37:23.993Z,94787.00
2022-07-26T05:39:50.753Z,94788.25
2022-07-26T05:42:17.557Z,94780.28
2022-07-26T05:44:44.571Z,94792.63
2022-07-26T05:47:11.630Z,94793.72
2022-07-26T05:49:40.179Z,94801.22
2022-07-26T05:52:08.515Z,94791.19
2022-07-26T05:54:35.850Z,94789.28
2022-07-26T05:57:03.761Z,94789.59
2022-07-26T05:59:33.233Z,94794.38
2022-07-26T06:02:00.117Z,94792.94
2022-07-26T06:04:28.064Z,94783.84
2022-07-26T06:06:55.547Z,94779.09
2022-07-26T06:09:24.917Z,94784.22
2022-07-26T06:11:52.013Z,94780.88
2022-07-26T06:14:19.782Z,94774.22
2022-07-26T06:16:47.824Z,94777.78
2022-07-26T06:19:15.217Z,94767.53
2022-07-26T06:21:46.182Z,94755.78
2022-07-26T06:24:13.704Z,94775.38
2022-07-26T06:26:40.886Z,94765.59
2022-07-26T06:29:07.818Z,94768.00
2022-07-26T06:31:34.990Z,94764.66
2022-07-26T06:34:02.046Z,94761.16
2022-07-26T06:36:31.015Z,94760.16
2022-07-26T06:38:58.779Z,94762.78
2022-07-26T06:41:25.867Z,94768.63
2022-07-26T06:43:52.870Z,94772.53
2022-07-26T06:46:21.278Z,94758.19
2022-07-26T06:48:53.154Z,94774.34
2022-07-26T06:51:24.448Z,94768.00
2022-07-26T06:53:51.839Z,94757.75
2022-07-26T06:56:19.701Z,94763.34
2022-07-26T06:58:47.318Z,94766.00
2022-07-26T07:01:57.647Z,94757.09
2022-07-26T07:04:01.205Z,94768.63
2022-07-26T07:06:28.150Z,94768.50
2022-07-26T07:08:55.020Z,94762.59
2022-07-26T07:11:22.254Z,94761.47
2022-07-26T07:13:49.806Z,94765.63
2022-07-26T07:16:16.713Z,94762.22
2022-07-26T07:18:43.469Z,94761.53
2022-07-26T07:21:10.353Z,94761.13
2022-07-26T07:23:37.160Z,94768.69
2022-07-26T07:26:04.009Z,94764.97
2022-07-26T07:28:33.774Z,94777.84
2022-07-26T07:31:01.551Z,94765.06
2022-07-26T07:33:36.445Z,94769.66
2022-07-26T07:36:10.624Z,94770.44
2022-07-26T07:38:37.534Z,94770.44
2022-07-26T07:41:09.726Z,94765.28
2022-07-26T07:43:36.460Z,94764.19
2022-07-26T07:46:03.641Z,94763.97
2022-07-26T07:48:30.933Z,94736.94
2022-07-26T07:50:58.125Z,94763.75
2022-07-26T07:53:25.827Z,94765.97
2022-07-26T07:55:55.338Z,94762.97
2022-07-26T07:58:22.272Z,94754.34
2022-07-26T08:00:49.181Z,94756.19
2022-07-26T08:03:17.821Z,94753.56
2022-07-26T08:05:47.192Z,94750.03
2022-07-26T08:08:17.356Z,94755.53
2022-07-26T08:10:51.572Z,94751.16
2022-07-26T08:13:21.366Z,94747.31
2022-07-26T08:15:52.975Z,94753.19
2022-07-26T08:18:22.373Z,94745.66
2022-07-26T08:20:51.336Z,94747.34
2022-07-26T08:23:20.663Z,94737.44
2022-07-26T08:25:56.430Z,94741.72
2022-07-26T08:31:13.878Z,94732.16
2022-07-26T08:33:46.412Z,94738.03
2022-07-26T08:36:15.582Z,94737.66
2022-07-26T08:38:42.999Z,94736.44
2022-07-26T08:41:10.109Z,94726.72
2022-07-26T08:43:48.942Z,94735.84
2022-07-26T08:46:24.913Z,94732.31
2022-07-26T08:48:52.644Z,94725.75
2022-07-26T08:51:22.726Z,94726.22
2022-07-26T08:53:51.045Z,94702.09
2022-07-26T08:56:18.006Z,94722.53
2022-07-26T08:58:45.708Z,94724.38
2022-07-26T09:01:13.412Z,94732.47
2022-07-26T09:03:41.952Z,94729.28
2022-07-26T09:06:21.279Z,94730.00
2022-07-26T09:08:53.054Z,94718.47
2022-07-26T09:11:30.058Z,94731.75
2022-07-26T09:13:59.906Z,94733.06
2022-07-26T09:16:27.079Z,94732.03
2022-07-26T09:18:55.024Z,94739.13
2022-07-26T09:21:32.977Z,94742.81
2022-07-26T09:24:00.564Z,94733.25
2022-07-26T09:26:28.367Z,94730.09
2022-07-26T09:29:09.125Z,94728.22
2022-07-26T09:31:37.950Z,94731.00
2022-07-26T09:34:07.075Z,94733.75
2022-07-26T09:36:50.799Z,94731.59
2022-07-26T09:39:17.891Z,94724.66
2022-07-26T09:42:26.920Z,94725.34
2022-07-26T09:44:55.256Z,94729.31
2022-07-26T09:47:23.137Z,94724.13
2022-07-26T09:49:50.285Z,94730.84
2022-07-26T09:52:21.878Z,94729.19
2022-07-26T09:54:49.734Z,94728.19
2022-07-26T09:57:18.409Z,94719.84
2022-07-26T09:59:46.297Z,94719.91
2022-07-26T10:02:14.327Z,94722.53
2022-07-26T10:04:42.344Z,94729.78
2022-07-26T10:07:10.749Z,94735.16
2022-07-26T10:09:47.341Z,94736.22
2022-07-26T10:12:16.654Z,94733.06
2022-07-26T10:14:46.213Z,94723.00
2022-07-26T10:17:35.168Z,94710.25
2022-07-26T10:20:16.834Z,94714.63
2022-07-26T10:22:52.338Z,94706.25
2022-07-26T10:25:19.192Z,94713.94
2022-07-26T10:27:47.763Z,94700.66
2022-07-26T10:30:17.499Z,94713.16
2022-07-26T10:33:04.194Z,94699.06
2022-07-26T10:35:34.560Z,94701.56
2022-07-26T10:38:06.551Z,94702.75
2022-07-26T10:40:34.311Z,94696.59
2022-07-26T10:43:39.515Z,94702.00
2022-07-26T10:46:16.905Z,94701.22
2022-07-26T10:49:04.625Z,94688.81
2022-07-26T10:52:05.416Z,94691.16
2022-07-26T10:54:32.481Z,94691.19
2022-07-26T10:56:59.602Z,94688.06
2022-07-26T10:59:54.889Z,94682.25
2022-07-26T11:02:21.528Z,94675.53
2022-07-26T11:04:49.664Z,94681.69
2022-07-26T11:07:16.777Z,94676.31
2022-07-26T11:09:43.561Z,94660.84
2022-07-26T11:12:20.327Z,94670.03
2022-07-26T11:14:48.526Z,94655.19
2022-07-26T11:17:26.997Z,94658.25
2022-07-26T11:19:54.495Z,94660.13
2022-07-26T11:22:22.327Z,94656.91
2022-07-26T11:24:49.301Z,94667.06
2022-07-26T11:27:16.097Z,94655.13
2022-07-26T11:29:49.276Z,94649.97
2022-07-26T11:32:24.036Z,94638.59
2022-07-26T11:35:01.765Z,94645.53
2022-07-26T11:37:29.950Z,94648.13
2022-07-26T11:39:57.514Z,94644.50
2022-07-26T11:42:24.700Z,94636.03
2022-07-26T11:50:22.966Z,94631.59
2022-07-26T11:52:55.538Z,94622.28
2022-07-26T13:01:27.260Z,94591.50
2022-07-26T13:03:56.039Z,94580.44
2022-07-26T13:06:23.271Z,94587.09
2022-07-26T13:08:50.432Z,94587.38
2022-07-26T13:21:36.995Z,94585.69
2022-07-26T13:24:04.027Z,94575.09
2022-07-26T13:26:35.391Z,94570.63
2022-07-26T13:29:04.260Z,94570.66
2022-07-26T13:31:32.710Z,94570.56
2022-07-26T13:34:00.374Z,94568.97
2022-07-26T13:36:27.275Z,94570.63
2022-07-26T13:38:54.215Z,94570.09
2022-07-26T13:41:21.041Z,94564.78
2022-07-26T13:43:48.061Z,94575.19
2022-07-26T13:46:15.150Z,94561.22
2022-07-26T13:48:58.207Z,94568.38
2022-07-26T13:51:48.250Z,94562.63
2022-07-26T13:54:16.829Z,94563.56
2022-07-26T13:56:44.542Z,94551.50
2022-07-26T13:59:12.450Z,94559.91
2022-07-26T14:01:43.431Z,94562.41
2022-07-26T14:04:13.117Z,94551.91
2022-07-26T14:06:41.200Z,94556.50
2022-07-26T14:09:10.935Z,94552.69
2022-07-26T14:11:41.542Z,94539.91
2022-07-26T14:14:10.094Z,94541.44
2022-07-26T14:16:37.818Z,94536.50
2022-07-26T14:19:06.370Z,94537.69
2022-07-26T14:21:38.637Z,94520.75
2022-07-26T14:24:16.657Z,94521.88
2022-07-26T14:26:47.888Z,94521.31
2022-07-26T14:29:15.293Z,94511.44
2022-07-26T14:31:42.157Z,94512.13
2022-07-26T14:34:09.284Z,94525.16
2022-07-26T14:36:36.442Z,94493.13
2022-07-26T14:39:03.534Z,94507.00
2022-07-26T14:41:31.765Z,94511.47
2022-07-26T14:43:58.700Z,94516.66
2022-07-26T14:46:25.679Z,94502.22
2022-07-26T14:48:54.956Z,94501.69
2022-07-26T14:51:22.690Z,94508.22
2022-07-26T14:53:49.514Z,94513.31
2022-07-26T14:56:16.330Z,94502.09
2022-07-26T14:58:43.213Z,94507.97
2022-07-26T15:01:10.109Z,94504.31
2022-07-26T15:03:37.089Z,94501.25
2022-07-26T15:06:04.006Z,94497.31
2022-07-26T15:08:30.966Z,94488.50
2022-07-26T15:10:57.941Z,94483.69
2022-07-26T15:13:25.150Z,94477.41
2022-07-26T15:15:52.423Z,94492.41
2022-07-26T15:18:19.294Z,94478.88
2022-07-26T15:20:47.040Z,94485.75
2022-07-26T15:23:15.289Z,94487.31
2022-07-26T15:25:42.044Z,94477.91
2022-07-26T15:28:09.290Z,94483.56
2022-07-26T15:30:36.960Z,94483.84
2022-07-26T15:33:03.985Z,94483.63
2022-07-26T15:35:31.053Z,94477.19
2022-07-26T15:37:57.998Z,94469.38
2022-07-26T15:40:24.929Z,94476.56
2022-07-26T15:42:53.088Z,94475.03
2022-07-26T15:45:21.949Z,94468.00
2022-07-26T15:47:56.078Z,94477.03
2022-07-26T15:50:25.525Z,94481.81
2022-07-26T15:52:52.863Z,94478.13
2022-07-26T15:55:20.365Z,94476.63
2022-07-26T15:57:47.931Z,94471.09
2022-07-26T16:00:15.910Z,94477.72
2022-07-26T16:02:43.087Z,94475.00
2022-07-26T16:05:11.036Z,94474.03
2022-07-26T16:07:41.535Z,94473.59
2022-07-26T16:10:10.680Z,94482.56
2022-07-26T16:12:37.873Z,94484.09
2022-07-26T16:15:06.829Z,94481.25
2022-07-26T16:17:33.713Z,94484.03
2022-07-26T16:20:00.845Z,94480.22
2022-07-26T16:22:27.881Z,94472.09
2022-07-26T16:24:54.799Z,94488.53
2022-07-26T16:27:21.672Z,94470.84
2022-07-26T16:29:52.324Z,94483.47
2022-07-26T16:32:21.296Z,94486.53
2022-07-26T16:34:48.859Z,94490.72
2022-07-26T16:37:15.852Z,94471.56
2022-07-26T16:39:42.678Z,94482.81
2022-07-26T16:42:09.563Z,94483.00
2022-07-26T16:44:36.531Z,94479.59
2022-07-26T16:47:04.712Z,94486.97
2022-07-26T16:49:31.755Z,94475.56
2022-07-26T16:51:59.156Z,94484.22
2022-07-26T16:54:26.143Z,94493.59
2022-07-26T16:56:53.170Z,94484.22
2022-07-26T16:59:19.992Z,94493.59
2022-07-26T17:01:46.838Z,94490.28
2022-07-26T17:04:13.665Z,94487.47
2022-07-26T17:06:40.520Z,94492.91
2022-07-26T17:09:07.509Z,94492.28
2022-07-26T17:11:42.458Z,94483.56
2022-07-26T17:14:09.427Z,94479.22
2022-07-26T17:16:36.834Z,94497.75
2022-07-26T17:19:03.789Z,94483.00
2022-07-26T17:21:30.620Z,94495.00
2022-07-26T17:23:58.479Z,94493.81
2022-07-26T17:26:30.414Z,94498.63
2022-07-26T17:28:57.552Z,94499.19
2022-07-26T17:31:24.667Z,94483.09
2022-07-26T17:33:51.839Z,94482.81
2022-07-26T17:36:23.655Z,94491.28
2022-07-26T17:38:50.670Z,94488.97
2022-07-26T17:41:18.503Z,94493.19
2022-07-26T17:43:46.592Z,94484.66
2022-07-26T17:46:13.571Z,94485.00
2022-07-26T17:48:44.057Z,94487.13
2022-07-26T17:51:11.006Z,94457.69
2022-07-26T17:53:37.907Z,94486.88
2022-07-26T17:56:05.158Z,94482.50
2022-07-26T17:58:32.003Z,94491.97
2022-07-26T18:00:58.883Z,94497.94
2022-07-26T18:03:25.822Z,94495.53
2022-07-26T18:05:52.781Z,94490.25
2022-07-26T18:08:19.649Z,94497.41
2022-07-26T18:10:51.101Z,94501.00
2022-07-26T18:13:18.330Z,94486.06
2022-07-26T18:15:45.444Z,94502.81
2022-07-26T18:18:12.519Z,94504.06
2022-07-26T18:20:39.399Z,94498.53
2022-07-26T18:23:06.346Z,94502.91
2022-07-26T18:25:33.227Z,94499.59
2022-07-26T18:28:06.396Z,94504.72
2022-07-26T18:30:34.147Z,94500.69
2022-07-26T18:33:01.475Z,94507.84
2022-07-26T18:35:30.114Z,94503.38
2022-07-26T18:37:57.069Z,94511.72
2022-07-26T18:40:25.523Z,94518.91
2022-07-26T18:42:53.114Z,94526.69
2022-07-26T18:45:20.411Z,94501.72
2022-07-26T18:47:47.211Z,94524.69
2022-07-26T18:50:16.952Z,94516.22
2022-07-26T18:52:44.972Z,94524.53
2022-07-26T18:55:13.949Z,94529.69
2022-07-26T18:57:43.075Z,94530.94
2022-07-26T19:00:17.548Z,94533.66
2022-07-26T19:02:45.248Z,94523.16
2022-07-26T19:05:14.044Z,94535.25
2022-07-26T19:07:41.043Z,94545.78
2022-07-26T19:10:10.141Z,94542.34
2022-07-26T19:12:37.693Z,94538.19
2022-07-26T19:15:06.724Z,94535.41
2022-07-26T19:17:34.348Z,94539.78
2022-07-26T19:20:01.506Z,94543.50
2022-07-26T19:22:30.605Z,94545.06
2022-07-26T19:24:57.810Z,94544.00
2022-07-26T19:27:25.290Z,94539.22
2022-07-26T19:29:52.016Z,94531.84
2022-07-26T19:32:19.108Z,94533.09
2022-07-26T19:34:46.068Z,94533.56
2022-07-26T19:37:19.814Z,94527.59
2022-07-26T19:39:47.043Z,94539.25
2022-07-26T19:42:14.093Z,94530.69
2022-07-26T19:44:41.049Z,94533.47
2022-07-26T19:47:08.084Z,94535.16
2022-07-26T19:49:35.629Z,94512.25
2022-07-26T19:52:02.596Z,94534.25
2022-07-26T19:54:29.611Z,94529.13
2022-07-26T19:56:56.785Z,94522.22
2022-07-26T19:59:24.826Z,94533.53
2022-07-26T20:01:56.615Z,94535.09
2022-07-26T20:04:25.259Z,94538.38
2022-07-26T20:06:52.190Z,94531.47
2022-07-26T20:09:19.088Z,94536.00
2022-07-26T20:11:50.817Z,94533.81
2022-07-26T20:14:20.827Z,94538.91
2022-07-26T20:16:55.819Z,94523.75
2022-07-26T20:19:24.572Z,94535.94
2022-07-26T20:21:51.389Z,94525.25
2022-07-26T20:24:19.073Z,94531.69
2022-07-26T20:26:46.094Z,94534.22
2022-07-26T20:29:14.002Z,94519.78
2022-07-26T20:31:41.519Z,94537.50
2022-07-26T20:34:08.436Z,94539.00
2022-07-26T20:36:35.349Z,94534.50
2022-07-26T20:39:02.937Z,94524.28
2022-07-26T20:41:33.846Z,94537.25
2022-07-26T20:44:03.644Z,94535.53
2022-07-26T20:46:31.610Z,94535.72
2022-07-26T20:48:58.552Z,94535.44
2022-07-26T20:51:25.585Z,94536.41
2022-07-26T20:53:52.436Z,94539.06
2022-07-26T20:56:19.270Z,94544.97
2022-07-26T20:58:46.125Z,94528.25
2022-07-26T21:01:14.056Z,94548.88
2022-07-26T21:03:40.984Z,94536.56
2022-07-26T21:06:08.541Z,94542.16
2022-07-26T21:08:35.842Z,94535.41
2022-07-26T21:11:02.850Z,94543.19
2022-07-26T21:13:29.747Z,94549.13
2022-07-26T21:15:56.695Z,94543.06
2022-07-26T21:18:23.639Z,94550.72
2022-07-26T21:20:50.491Z,94555.41
2022-07-26T21:23:18.495Z,94549.13
2022-07-26T21:25:47.345Z,94549.41
2022-07-26T21:28:14.340Z,94562.25
2022-07-26T21:30:41.371Z,94557.28
2022-07-26T21:33:08.275Z,94557.94
2022-07-26T21:35:35.011Z,94556.38
2022-07-26T21:38:01.941Z,94559.22
2022-07-26T21:40:28.749Z,94554.28
2022-07-26T21:42:55.481Z,94551.28
2022-07-26T21:45:23.101Z,94559.94
2022-07-26T21:47:50.022Z,94537.81
2022-07-26T21:50:17.460Z,94539.97
2022-07-26T21:52:44.365Z,94550.91
2022-07-26T21:55:11.482Z,94542.63
2022-07-26T21:57:45.076Z,94541.72
2022-07-26T22:00:14.359Z,94553.41
2022-07-26T22:02:41.593Z,94551.84
2022-07-26T22:05:29.109Z,94549.34
2022-07-26T22:07:55.935Z,94547.50
2022-07-26T22:10:22.750Z,94559.66
2022-07-26T22:12:49.598Z,94554.25
2022-07-26T22:15:16.458Z,94555.03
2022-07-26T22:17:43.388Z,94550.19
2022-07-26T22:20:11.197Z,94559.25
2022-07-26T22:22:38.364Z,94561.88
2022-07-26T22:25:06.034Z,94565.75
2022-07-26T22:27:33.076Z,94569.59
2022-07-26T22:29:59.861Z,94557.88
2022-07-26T22:32:27.033Z,94557.78
2022-07-26T22:34:53.879Z,94555.16
2022-07-26T22:37:20.713Z,94559.25
2022-07-26T22:39:47.602Z,94537.00
2022-07-26T22:42:16.101Z,94557.38
2022-07-26T22:44:43.288Z,94558.31
2022-07-26T22:47:10.176Z,94563.63
2022-07-26T22:49:37.062Z,94574.34
2022-07-26T22:52:03.972Z,94566.78
2022-07-26T22:54:30.747Z,94574.34
2022-07-26T22:56:57.494Z,94569.09
2022-07-26T22:59:25.426Z,94553.66
2022-07-26T23:01:52.315Z,94574.81
2022-07-26T23:04:19.182Z,94567.84
2022-07-26T23:06:46.191Z,94570.59
2022-07-26T23:09:13.978Z,94575.13
2022-07-26T23:11:41.150Z,94572.00
2022-07-26T23:14:07.942Z,94579.88
2022-07-26T23:16:34.879Z,94579.66
2022-07-26T23:19:01.671Z,94575.47
2022-07-26T23:21:28.470Z,94575.47
2022-07-26T23:23:55.612Z,94584.00
2022-07-26T23:26:22.743Z,94582.03
2022-07-26T23:28:50.016Z,94585.97
2022-07-26T23:31:16.967Z,94578.13
2022-07-26T23:33:52.256Z,94572.75
2022-07-26T23:36:28.542Z,94572.28
2022-07-26T23:38:57.882Z,94573.47
2022-07-26T23:41:25.565Z,94582.16
2022-07-26T23:43:54.154Z,94571.84
2022-07-26T23:46:22.066Z,94578.34
2022-07-26T23:48:50.175Z,94573.13
2022-07-26T23:51:19.618Z,94583.22
2022-07-26T23:53:47.293Z,94568.53
2022-07-26T23:56:14.181Z,94560.03
2022-07-26T23:58:41.591Z,94566.09
